sensor_id;sensor_type;location;lat;lon;timestamp;temperature;humidity
56771;DHT22;42641;59.794;17.616;2023-07-31T00:01:09;16.50;99.90
56771;DHT22;42641;59.794;17.616;2023-07-31T00:03:35;16.50;99.90
56771;DHT22;42641;59.794;17.616;2023-07-31T00:06:02;16.50;99.90
56771;DHT22;42641;59.794;17.616;2023-07-31T00:08:28;16.50;99.90
56771;DHT22;42641;59.794;17.616;2023-07-31T00:10:55;16.50;99.90
56771;DHT22;42641;59.794;17.616;2023-07-31T00:13:21;16.40;99.90
56771;DHT22;42641;59.794;17.616;2023-07-31T00:15:48;16.50;99.90
56771;DHT22;42641;59.794;17.616;2023-07-31T00:18:15;16.40;99.90
56771;DHT22;42641;59.794;17.616;2023-07-31T00:20:41;16.40;99.90
56771;DHT22;42641;59.794;17.616;2023-07-31T00:23:08;16.30;99.90
56771;DHT22;42641;59.794;17.616;2023-07-31T00:25:34;16.40;99.90
56771;DHT22;42641;59.794;17.616;2023-07-31T00:28:01;16.30;99.90
56771;DHT22;42641;59.794;17.616;2023-07-31T00:30:27;16.30;99.90
56771;DHT22;42641;59.794;17.616;2023-07-31T00:32:54;16.30;99.90
56771;DHT22;42641;59.794;17.616;2023-07-31T00:35:20;16.20;99.90
56771;DHT22;42641;59.794;17.616;2023-07-31T00:37:46;16.10;99.90
56771;DHT22;42641;59.794;17.616;2023-07-31T00:40:13;16.10;99.90
56771;DHT22;42641;59.794;17.616;2023-07-31T00:42:40;16.00;99.90
56771;DHT22;42641;59.794;17.616;2023-07-31T00:45:08;15.90;99.90
56771;DHT22;42641;59.794;17.616;2023-07-31T00:47:34;15.90;99.90
56771;DHT22;42641;59.794;17.616;2023-07-31T00:50:01;15.90;99.90
56771;DHT22;42641;59.794;17.616;2023-07-31T00:52:28;15.90;99.90
56771;DHT22;42641;59.794;17.616;2023-07-31T00:54:56;15.90;99.90
56771;DHT22;42641;59.794;17.616;2023-07-31T00:57:22;15.90;99.90
56771;DHT22;42641;59.794;17.616;2023-07-31T00:59:51;15.90;99.90
56771;DHT22;42641;59.794;17.616;2023-07-31T01:02:17;15.90;99.90
56771;DHT22;42641;59.794;17.616;2023-07-31T01:04:44;15.90;99.90
56771;DHT22;42641;59.794;17.616;2023-07-31T01:07:30;15.90;99.90
56771;DHT22;42641;59.794;17.616;2023-07-31T01:10:23;15.90;99.90
56771;DHT22;42641;59.794;17.616;2023-07-31T01:12:51;15.80;99.90
56771;DHT22;42641;59.794;17.616;2023-07-31T01:15:19;15.80;99.90
56771;DHT22;42641;59.794;17.616;2023-07-31T01:17:47;15.70;99.90
56771;DHT22;42641;59.794;17.616;2023-07-31T01:20:23;15.70;99.90
56771;DHT22;42641;59.794;17.616;2023-07-31T01:28:12;15.70;99.90
56771;DHT22;42641;59.794;17.616;2023-07-31T01:30:44;15.70;99.90
56771;DHT22;42641;59.794;17.616;2023-07-31T01:33:12;15.60;99.90
56771;DHT22;42641;59.794;17.616;2023-07-31T01:35:41;15.60;99.90
56771;DHT22;42641;59.794;17.616;2023-07-31T01:38:08;15.60;99.90
56771;DHT22;42641;59.794;17.616;2023-07-31T01:40:34;15.60;99.90
56771;DHT22;42641;59.794;17.616;2023-07-31T01:43:00;15.60;99.90
56771;DHT22;42641;59.794;17.616;2023-07-31T01:45:28;15.60;99.90
56771;DHT22;42641;59.794;17.616;2023-07-31T01:47:55;15.50;99.90
56771;DHT22;42641;59.794;17.616;2023-07-31T01:50:21;15.50;99.90
56771;DHT22;42641;59.794;17.616;2023-07-31T01:52:48;15.50;99.90
56771;DHT22;42641;59.794;17.616;2023-07-31T01:55:14;15.50;99.90
56771;DHT22;42641;59.794;17.616;2023-07-31T01:57:41;15.50;99.90
56771;DHT22;42641;59.794;17.616;2023-07-31T02:00:08;15.50;99.90
56771;DHT22;42641;59.794;17.616;2023-07-31T02:05:36;15.40;99.90
56771;DHT22;42641;59.794;17.616;2023-07-31T02:08:02;15.40;99.90
56771;DHT22;42641;59.794;17.616;2023-07-31T02:10:29;15.30;99.90
56771;DHT22;42641;59.794;17.616;2023-07-31T02:13:01;15.40;99.90
56771;DHT22;42641;59.794;17.616;2023-07-31T02:15:30;15.40;99.90
56771;DHT22;42641;59.794;17.616;2023-07-31T02:17:57;15.40;99.90
56771;DHT22;42641;59.794;17.616;2023-07-31T02:20:23;15.40;99.90
56771;DHT22;42641;59.794;17.616;2023-07-31T02:22:50;15.40;99.90
56771;DHT22;42641;59.794;17.616;2023-07-31T02:25:16;15.50;99.90
56771;DHT22;42641;59.794;17.616;2023-07-31T02:27:45;15.40;99.90
56771;DHT22;42641;59.794;17.616;2023-07-31T02:30:11;15.40;99.90
56771;DHT22;42641;59.794;17.616;2023-07-31T02:32:38;15.40;99.90
56771;DHT22;42641;59.794;17.616;2023-07-31T02:35:04;15.40;99.90
56771;DHT22;42641;59.794;17.616;2023-07-31T02:37:31;15.40;99.90
56771;DHT22;42641;59.794;17.616;2023-07-31T02:39:57;15.40;99.90
56771;DHT22;42641;59.794;17.616;2023-07-31T02:42:26;15.40;99.90
56771;DHT22;42641;59.794;17.616;2023-07-31T02:44:52;15.40;99.90
56771;DHT22;42641;59.794;17.616;2023-07-31T02:47:22;15.40;99.90
56771;DHT22;42641;59.794;17.616;2023-07-31T02:49:49;15.40;99.90
56771;DHT22;42641;59.794;17.616;2023-07-31T02:52:17;15.40;99.90
56771;DHT22;42641;59.794;17.616;2023-07-31T02:54:43;15.30;99.90
56771;DHT22;42641;59.794;17.616;2023-07-31T02:57:10;15.30;99.90
56771;DHT22;42641;59.794;17.616;2023-07-31T02:59:37;15.30;99.90
56771;DHT22;42641;59.794;17.616;2023-07-31T03:02:03;15.40;99.90
56771;DHT22;42641;59.794;17.616;2023-07-31T03:04:30;15.30;99.90
56771;DHT22;42641;59.794;17.616;2023-07-31T03:06:56;15.30;99.90
56771;DHT22;42641;59.794;17.616;2023-07-31T03:09:23;15.30;99.90
56771;DHT22;42641;59.794;17.616;2023-07-31T03:11:49;15.20;99.90
56771;DHT22;42641;59.794;17.616;2023-07-31T03:14:15;15.20;99.90
56771;DHT22;42641;59.794;17.616;2023-07-31T03:16:42;15.20;99.90
56771;DHT22;42641;59.794;17.616;2023-07-31T03:19:08;15.10;99.90
56771;DHT22;42641;59.794;17.616;2023-07-31T03:21:35;15.20;99.90
56771;DHT22;42641;59.794;17.616;2023-07-31T03:24:01;15.30;99.90
56771;DHT22;42641;59.794;17.616;2023-07-31T03:26:28;15.30;99.90
56771;DHT22;42641;59.794;17.616;2023-07-31T03:28:57;15.40;99.90
56771;DHT22;42641;59.794;17.616;2023-07-31T03:31:23;15.40;99.90
56771;DHT22;42641;59.794;17.616;2023-07-31T03:33:49;15.40;99.90
56771;DHT22;42641;59.794;17.616;2023-07-31T03:36:16;15.40;99.90
56771;DHT22;42641;59.794;17.616;2023-07-31T03:38:42;15.40;99.90
56771;DHT22;42641;59.794;17.616;2023-07-31T03:41:09;15.40;99.90
56771;DHT22;42641;59.794;17.616;2023-07-31T03:43:36;15.40;99.90
56771;DHT22;42641;59.794;17.616;2023-07-31T03:46:03;15.40;99.90
56771;DHT22;42641;59.794;17.616;2023-07-31T03:48:30;15.30;99.90
56771;DHT22;42641;59.794;17.616;2023-07-31T03:50:57;15.30;99.90
56771;DHT22;42641;59.794;17.616;2023-07-31T03:53:23;15.40;99.90
56771;DHT22;42641;59.794;17.616;2023-07-31T03:55:50;15.40;99.90
56771;DHT22;42641;59.794;17.616;2023-07-31T03:58:16;15.40;99.90
56771;DHT22;42641;59.794;17.616;2023-07-31T04:00:43;15.50;99.90
56771;DHT22;42641;59.794;17.616;2023-07-31T04:03:09;15.50;99.90
56771;DHT22;42641;59.794;17.616;2023-07-31T04:05:38;15.50;99.90
56771;DHT22;42641;59.794;17.616;2023-07-31T04:08:05;15.40;99.90
56771;DHT22;42641;59.794;17.616;2023-07-31T04:10:31;15.50;99.90
56771;DHT22;42641;59.794;17.616;2023-07-31T04:13:00;15.60;99.90
56771;DHT22;42641;59.794;17.616;2023-07-31T04:15:26;15.70;99.90
56771;DHT22;42641;59.794;17.616;2023-07-31T04:17:53;15.80;99.90
56771;DHT22;42641;59.794;17.616;2023-07-31T04:20:19;15.90;99.90
56771;DHT22;42641;59.794;17.616;2023-07-31T04:22:46;16.00;99.90
56771;DHT22;42641;59.794;17.616;2023-07-31T04:25:12;16.10;99.90
56771;DHT22;42641;59.794;17.616;2023-07-31T04:27:39;16.20;99.90
56771;DHT22;42641;59.794;17.616;2023-07-31T04:30:07;16.30;99.90
56771;DHT22;42641;59.794;17.616;2023-07-31T04:32:33;16.30;99.90
56771;DHT22;42641;59.794;17.616;2023-07-31T04:35:02;16.40;99.90
56771;DHT22;42641;59.794;17.616;2023-07-31T04:37:28;16.40;99.90
56771;DHT22;42641;59.794;17.616;2023-07-31T04:39:55;16.50;99.90
56771;DHT22;42641;59.794;17.616;2023-07-31T04:42:21;16.60;99.90
56771;DHT22;42641;59.794;17.616;2023-07-31T04:44:47;16.70;99.90
56771;DHT22;42641;59.794;17.616;2023-07-31T04:47:14;16.70;99.90
56771;DHT22;42641;59.794;17.616;2023-07-31T04:49:40;16.70;99.90
56771;DHT22;42641;59.794;17.616;2023-07-31T04:52:07;16.80;99.90
56771;DHT22;42641;59.794;17.616;2023-07-31T04:54:33;16.90;99.90
56771;DHT22;42641;59.794;17.616;2023-07-31T04:57:00;16.90;99.90
56771;DHT22;42641;59.794;17.616;2023-07-31T04:59:26;17.00;99.90
56771;DHT22;42641;59.794;17.616;2023-07-31T05:01:53;17.00;99.90
56771;DHT22;42641;59.794;17.616;2023-07-31T05:04:19;17.10;99.90
56771;DHT22;42641;59.794;17.616;2023-07-31T05:06:46;17.10;99.90
56771;DHT22;42641;59.794;17.616;2023-07-31T05:09:12;17.10;99.90
56771;DHT22;42641;59.794;17.616;2023-07-31T05:11:39;17.20;99.90
56771;DHT22;42641;59.794;17.616;2023-07-31T05:14:06;17.30;99.90
56771;DHT22;42641;59.794;17.616;2023-07-31T05:16:33;17.40;99.90
56771;DHT22;42641;59.794;17.616;2023-07-31T05:19:00;17.40;99.90
56771;DHT22;42641;59.794;17.616;2023-07-31T05:21:26;17.50;99.90
56771;DHT22;42641;59.794;17.616;2023-07-31T05:23:53;17.50;99.90
56771;DHT22;42641;59.794;17.616;2023-07-31T05:26:19;17.50;99.90
56771;DHT22;42641;59.794;17.616;2023-07-31T05:28:46;17.50;99.90
56771;DHT22;42641;59.794;17.616;2023-07-31T05:31:12;17.60;99.90
56771;DHT22;42641;59.794;17.616;2023-07-31T05:33:39;17.60;99.90
56771;DHT22;42641;59.794;17.616;2023-07-31T05:36:05;17.70;99.90
56771;DHT22;42641;59.794;17.616;2023-07-31T05:38:32;17.70;99.90
56771;DHT22;42641;59.794;17.616;2023-07-31T05:40:58;17.70;99.90
56771;DHT22;42641;59.794;17.616;2023-07-31T05:43:25;17.80;99.90
56771;DHT22;42641;59.794;17.616;2023-07-31T05:45:51;17.90;99.90
56771;DHT22;42641;59.794;17.616;2023-07-31T05:48:18;17.90;99.90
56771;DHT22;42641;59.794;17.616;2023-07-31T05:50:44;17.90;99.90
56771;DHT22;42641;59.794;17.616;2023-07-31T05:53:11;18.00;99.90
56771;DHT22;42641;59.794;17.616;2023-07-31T05:55:38;18.00;99.90
56771;DHT22;42641;59.794;17.616;2023-07-31T05:58:05;18.10;99.90
56771;DHT22;42641;59.794;17.616;2023-07-31T06:00:31;18.10;99.90
56771;DHT22;42641;59.794;17.616;2023-07-31T06:02:59;18.10;99.90
56771;DHT22;42641;59.794;17.616;2023-07-31T06:05:26;18.10;99.90
56771;DHT22;42641;59.794;17.616;2023-07-31T06:07:54;18.20;99.90
56771;DHT22;42641;59.794;17.616;2023-07-31T06:10:20;18.20;99.90
56771;DHT22;42641;59.794;17.616;2023-07-31T06:12:47;18.30;99.90
56771;DHT22;42641;59.794;17.616;2023-07-31T06:15:13;18.20;99.90
56771;DHT22;42641;59.794;17.616;2023-07-31T06:17:40;18.30;99.90
56771;DHT22;42641;59.794;17.616;2023-07-31T06:20:07;18.40;99.90
56771;DHT22;42641;59.794;17.616;2023-07-31T06:22:34;18.40;99.90
56771;DHT22;42641;59.794;17.616;2023-07-31T06:25:00;18.40;99.90
56771;DHT22;42641;59.794;17.616;2023-07-31T06:27:27;18.40;99.90
56771;DHT22;42641;59.794;17.616;2023-07-31T06:29:53;18.50;99.90
56771;DHT22;42641;59.794;17.616;2023-07-31T06:32:20;18.50;99.90
56771;DHT22;42641;59.794;17.616;2023-07-31T06:34:46;18.60;99.90
56771;DHT22;42641;59.794;17.616;2023-07-31T06:37:13;18.70;99.90
56771;DHT22;42641;59.794;17.616;2023-07-31T06:39:39;18.70;99.90
56771;DHT22;42641;59.794;17.616;2023-07-31T06:42:06;18.70;99.90
56771;DHT22;42641;59.794;17.616;2023-07-31T06:44:32;18.60;99.90
56771;DHT22;42641;59.794;17.616;2023-07-31T06:46:58;18.50;99.90
56771;DHT22;42641;59.794;17.616;2023-07-31T06:49:25;18.60;99.90
56771;DHT22;42641;59.794;17.616;2023-07-31T06:51:51;18.80;99.90
56771;DHT22;42641;59.794;17.616;2023-07-31T06:54:18;18.90;99.90
56771;DHT22;42641;59.794;17.616;2023-07-31T06:56:44;19.00;99.90
56771;DHT22;42641;59.794;17.616;2023-07-31T06:59:10;19.10;99.90
56771;DHT22;42641;59.794;17.616;2023-07-31T07:01:37;19.10;99.90
56771;DHT22;42641;59.794;17.616;2023-07-31T07:04:03;19.20;99.90
56771;DHT22;42641;59.794;17.616;2023-07-31T07:06:30;19.20;99.90
56771;DHT22;42641;59.794;17.616;2023-07-31T07:08:56;19.30;99.90
56771;DHT22;42641;59.794;17.616;2023-07-31T07:11:23;19.40;99.90
56771;DHT22;42641;59.794;17.616;2023-07-31T07:13:49;19.50;99.90
56771;DHT22;42641;59.794;17.616;2023-07-31T07:16:16;19.60;99.90
56771;DHT22;42641;59.794;17.616;2023-07-31T07:18:43;19.70;99.90
56771;DHT22;42641;59.794;17.616;2023-07-31T07:21:09;19.60;99.90
56771;DHT22;42641;59.794;17.616;2023-07-31T07:23:40;19.60;99.90
56771;DHT22;42641;59.794;17.616;2023-07-31T07:26:07;19.60;99.90
56771;DHT22;42641;59.794;17.616;2023-07-31T07:28:33;19.50;99.90
56771;DHT22;42641;59.794;17.616;2023-07-31T07:30:59;19.60;99.90
56771;DHT22;42641;59.794;17.616;2023-07-31T07:33:26;19.70;99.90
56771;DHT22;42641;59.794;17.616;2023-07-31T07:35:52;19.80;99.90
56771;DHT22;42641;59.794;17.616;2023-07-31T07:38:19;19.80;99.90
56771;DHT22;42641;59.794;17.616;2023-07-31T07:40:45;19.70;99.90
56771;DHT22;42641;59.794;17.616;2023-07-31T07:43:14;19.80;99.90
56771;DHT22;42641;59.794;17.616;2023-07-31T07:45:41;19.80;99.90
56771;DHT22;42641;59.794;17.616;2023-07-31T07:48:07;19.90;99.90
56771;DHT22;42641;59.794;17.616;2023-07-31T07:50:34;20.00;99.90
56771;DHT22;42641;59.794;17.616;2023-07-31T07:53:00;20.10;99.90
56771;DHT22;42641;59.794;17.616;2023-07-31T07:55:26;20.20;99.90
56771;DHT22;42641;59.794;17.616;2023-07-31T07:57:53;20.30;99.90
56771;DHT22;42641;59.794;17.616;2023-07-31T08:03:15;20.40;99.90
56771;DHT22;42641;59.794;17.616;2023-07-31T08:05:43;20.50;99.90
56771;DHT22;42641;59.794;17.616;2023-07-31T08:08:14;20.50;99.90
56771;DHT22;42641;59.794;17.616;2023-07-31T08:10:42;20.50;99.90
56771;DHT22;42641;59.794;17.616;2023-07-31T08:13:12;20.50;99.90
56771;DHT22;42641;59.794;17.616;2023-07-31T08:15:41;20.40;99.90
56771;DHT22;42641;59.794;17.616;2023-07-31T08:18:07;20.40;99.90
56771;DHT22;42641;59.794;17.616;2023-07-31T08:20:34;20.50;99.90
56771;DHT22;42641;59.794;17.616;2023-07-31T08:23:04;20.50;99.90
56771;DHT22;42641;59.794;17.616;2023-07-31T08:25:35;20.30;99.90
56771;DHT22;42641;59.794;17.616;2023-07-31T08:28:02;20.10;99.90
56771;DHT22;42641;59.794;17.616;2023-07-31T08:30:28;20.10;99.90
56771;DHT22;42641;59.794;17.616;2023-07-31T08:32:55;20.10;99.90
56771;DHT22;42641;59.794;17.616;2023-07-31T08:35:21;20.10;99.90
56771;DHT22;42641;59.794;17.616;2023-07-31T08:37:48;20.20;99.90
56771;DHT22;42641;59.794;17.616;2023-07-31T08:40:14;20.10;99.90
56771;DHT22;42641;59.794;17.616;2023-07-31T08:42:48;20.10;99.90
56771;DHT22;42641;59.794;17.616;2023-07-31T08:45:16;20.10;99.90
56771;DHT22;42641;59.794;17.616;2023-07-31T08:47:45;20.00;99.90
56771;DHT22;42641;59.794;17.616;2023-07-31T08:50:13;20.00;99.90
56771;DHT22;42641;59.794;17.616;2023-07-31T08:52:40;19.90;99.90
56771;DHT22;42641;59.794;17.616;2023-07-31T08:55:07;19.80;99.90
56771;DHT22;42641;59.794;17.616;2023-07-31T08:57:36;19.70;99.90
56771;DHT22;42641;59.794;17.616;2023-07-31T09:00:06;19.60;99.90
56771;DHT22;42641;59.794;17.616;2023-07-31T09:02:59;19.50;99.90
56771;DHT22;42641;59.794;17.616;2023-07-31T09:05:26;19.40;99.90
56771;DHT22;42641;59.794;17.616;2023-07-31T09:07:55;19.20;99.90
56771;DHT22;42641;59.794;17.616;2023-07-31T09:10:23;19.10;99.90
56771;DHT22;42641;59.794;17.616;2023-07-31T09:12:53;19.00;99.90
56771;DHT22;42641;59.794;17.616;2023-07-31T09:15:22;18.90;99.90
56771;DHT22;42641;59.794;17.616;2023-07-31T09:17:59;18.80;99.90
56771;DHT22;42641;59.794;17.616;2023-07-31T09:20:27;18.80;99.90
56771;DHT22;42641;59.794;17.616;2023-07-31T09:22:55;18.70;99.90
56771;DHT22;42641;59.794;17.616;2023-07-31T09:25:23;18.70;99.90
56771;DHT22;42641;59.794;17.616;2023-07-31T09:27:51;18.60;99.90
56771;DHT22;42641;59.794;17.616;2023-07-31T09:30:18;18.50;99.90
56771;DHT22;42641;59.794;17.616;2023-07-31T09:33:10;18.40;99.90
56771;DHT22;42641;59.794;17.616;2023-07-31T09:35:37;18.30;99.90
56771;DHT22;42641;59.794;17.616;2023-07-31T09:38:07;18.20;99.90
56771;DHT22;42641;59.794;17.616;2023-07-31T09:40:37;18.10;99.90
56771;DHT22;42641;59.794;17.616;2023-07-31T09:43:05;18.00;99.90
56771;DHT22;42641;59.794;17.616;2023-07-31T09:48:17;17.70;99.90
56771;DHT22;42641;59.794;17.616;2023-07-31T09:50:45;17.50;99.90
56771;DHT22;42641;59.794;17.616;2023-07-31T09:53:12;17.30;99.90
56771;DHT22;42641;59.794;17.616;2023-07-31T09:55:40;17.20;99.90
56771;DHT22;42641;59.794;17.616;2023-07-31T09:58:08;17.10;99.90
56771;DHT22;42641;59.794;17.616;2023-07-31T10:00:35;17.00;99.90
56771;DHT22;42641;59.794;17.616;2023-07-31T10:03:05;17.00;99.90
56771;DHT22;42641;59.794;17.616;2023-07-31T10:05:43;16.90;99.90
56771;DHT22;42641;59.794;17.616;2023-07-31T10:08:14;16.90;99.90
56771;DHT22;42641;59.794;17.616;2023-07-31T10:10:43;16.90;99.90
56771;DHT22;42641;59.794;17.616;2023-07-31T10:13:09;16.80;99.90
56771;DHT22;42641;59.794;17.616;2023-07-31T10:15:36;16.80;99.90
56771;DHT22;42641;59.794;17.616;2023-07-31T10:18:05;16.70;99.90
56771;DHT22;42641;59.794;17.616;2023-07-31T10:20:33;16.70;99.90
56771;DHT22;42641;59.794;17.616;2023-07-31T10:23:00;16.70;99.90
56771;DHT22;42641;59.794;17.616;2023-07-31T10:25:27;16.70;99.90
56771;DHT22;42641;59.794;17.616;2023-07-31T10:27:54;16.60;99.90
56771;DHT22;42641;59.794;17.616;2023-07-31T10:30:27;16.50;99.90
56771;DHT22;42641;59.794;17.616;2023-07-31T10:32:56;16.50;99.90
56771;DHT22;42641;59.794;17.616;2023-07-31T10:35:22;16.50;99.90
56771;DHT22;42641;59.794;17.616;2023-07-31T10:37:49;16.50;99.90
56771;DHT22;42641;59.794;17.616;2023-07-31T10:40:26;16.60;99.90
56771;DHT22;42641;59.794;17.616;2023-07-31T10:42:56;16.70;99.90
56771;DHT22;42641;59.794;17.616;2023-07-31T10:45:37;16.70;99.90
56771;DHT22;42641;59.794;17.616;2023-07-31T10:48:22;16.60;99.90
56771;DHT22;42641;59.794;17.616;2023-07-31T10:50:58;16.60;99.90
56771;DHT22;42641;59.794;17.616;2023-07-31T10:53:32;16.60;99.90
56771;DHT22;42641;59.794;17.616;2023-07-31T10:56:06;16.70;99.90
56771;DHT22;42641;59.794;17.616;2023-07-31T10:58:34;16.80;99.90
56771;DHT22;42641;59.794;17.616;2023-07-31T11:01:03;16.90;99.90
56771;DHT22;42641;59.794;17.616;2023-07-31T11:03:50;17.10;99.90
56771;DHT22;42641;59.794;17.616;2023-07-31T11:06:18;17.30;99.90
56771;DHT22;42641;59.794;17.616;2023-07-31T11:08:49;17.70;99.90
56771;DHT22;42641;59.794;17.616;2023-07-31T11:11:18;18.10;99.90
56771;DHT22;42641;59.794;17.616;2023-07-31T11:13:50;18.70;99.90
56771;DHT22;42641;59.794;17.616;2023-07-31T11:16:18;19.50;99.90
56771;DHT22;42641;59.794;17.616;2023-07-31T11:18:46;20.40;99.90
56771;DHT22;42641;59.794;17.616;2023-07-31T11:21:16;21.10;99.90
56771;DHT22;42641;59.794;17.616;2023-07-31T11:23:51;21.80;99.90
56771;DHT22;42641;59.794;17.616;2023-07-31T11:26:19;22.00;99.90
56771;DHT22;42641;59.794;17.616;2023-07-31T11:28:49;21.90;99.90
56771;DHT22;42641;59.794;17.616;2023-07-31T11:31:17;22.10;99.90
56771;DHT22;42641;59.794;17.616;2023-07-31T11:33:43;22.20;99.90
56771;DHT22;42641;59.794;17.616;2023-07-31T11:36:17;22.40;99.90
56771;DHT22;42641;59.794;17.616;2023-07-31T11:38:44;23.10;99.90
56771;DHT22;42641;59.794;17.616;2023-07-31T11:41:14;23.60;99.90
56771;DHT22;42641;59.794;17.616;2023-07-31T11:43:42;24.50;99.90
56771;DHT22;42641;59.794;17.616;2023-07-31T11:46:09;25.30;99.90
56771;DHT22;42641;59.794;17.616;2023-07-31T11:48:37;25.90;99.90
56771;DHT22;42641;59.794;17.616;2023-07-31T11:51:06;25.60;99.90
56771;DHT22;42641;59.794;17.616;2023-07-31T11:53:52;25.10;99.90
56771;DHT22;42641;59.794;17.616;2023-07-31T11:56:20;24.60;99.90
56771;DHT22;42641;59.794;17.616;2023-07-31T11:58:51;23.70;99.90
56771;DHT22;42641;59.794;17.616;2023-07-31T12:01:21;22.90;99.90
56771;DHT22;42641;59.794;17.616;2023-07-31T12:03:58;22.60;99.90
56771;DHT22;42641;59.794;17.616;2023-07-31T12:06:35;22.50;99.90
56771;DHT22;42641;59.794;17.616;2023-07-31T12:09:05;22.10;99.90
56771;DHT22;42641;59.794;17.616;2023-07-31T12:11:43;21.70;99.90
56771;DHT22;42641;59.794;17.616;2023-07-31T12:14:27;21.60;99.90
56771;DHT22;42641;59.794;17.616;2023-07-31T12:16:58;21.50;99.90
56771;DHT22;42641;59.794;17.616;2023-07-31T12:22:20;21.10;99.90
56771;DHT22;42641;59.794;17.616;2023-07-31T12:24:47;20.90;99.90
56771;DHT22;42641;59.794;17.616;2023-07-31T12:27:14;20.90;99.90
56771;DHT22;42641;59.794;17.616;2023-07-31T12:29:42;20.90;99.90
56771;DHT22;42641;59.794;17.616;2023-07-31T12:32:24;21.00;99.90
56771;DHT22;42641;59.794;17.616;2023-07-31T12:34:51;21.00;99.90
56771;DHT22;42641;59.794;17.616;2023-07-31T12:37:17;21.10;99.90
56771;DHT22;42641;59.794;17.616;2023-07-31T12:39:44;21.10;99.90
56771;DHT22;42641;59.794;17.616;2023-07-31T12:42:10;21.20;99.90
56771;DHT22;42641;59.794;17.616;2023-07-31T12:44:37;21.10;99.90
56771;DHT22;42641;59.794;17.616;2023-07-31T12:47:04;21.10;99.90
56771;DHT22;42641;59.794;17.616;2023-07-31T12:49:30;21.00;99.90
56771;DHT22;42641;59.794;17.616;2023-07-31T12:51:56;20.90;99.90
56771;DHT22;42641;59.794;17.616;2023-07-31T12:54:23;20.70;99.90
56771;DHT22;42641;59.794;17.616;2023-07-31T12:56:49;20.60;99.90
56771;DHT22;42641;59.794;17.616;2023-07-31T12:59:16;20.70;99.90
56771;DHT22;42641;59.794;17.616;2023-07-31T13:01:42;20.80;99.90
56771;DHT22;42641;59.794;17.616;2023-07-31T13:04:09;20.80;99.90
56771;DHT22;42641;59.794;17.616;2023-07-31T13:06:35;20.90;99.90
56771;DHT22;42641;59.794;17.616;2023-07-31T13:09:01;20.90;99.90
56771;DHT22;42641;59.794;17.616;2023-07-31T13:11:28;20.90;99.90
56771;DHT22;42641;59.794;17.616;2023-07-31T13:13:54;20.90;99.90
56771;DHT22;42641;59.794;17.616;2023-07-31T13:16:21;20.90;99.90
56771;DHT22;42641;59.794;17.616;2023-07-31T13:18:47;20.80;99.90
56771;DHT22;42641;59.794;17.616;2023-07-31T13:21:14;20.80;99.90
56771;DHT22;42641;59.794;17.616;2023-07-31T13:23:40;20.80;99.90
56771;DHT22;42641;59.794;17.616;2023-07-31T13:26:06;20.80;99.90
56771;DHT22;42641;59.794;17.616;2023-07-31T13:28:33;20.60;99.90
56771;DHT22;42641;59.794;17.616;2023-07-31T13:30:59;20.60;99.90
56771;DHT22;42641;59.794;17.616;2023-07-31T13:33:25;20.60;99.90
56771;DHT22;42641;59.794;17.616;2023-07-31T13:35:52;20.70;99.90
56771;DHT22;42641;59.794;17.616;2023-07-31T13:38:18;20.70;99.90
56771;DHT22;42641;59.794;17.616;2023-07-31T13:40:45;20.70;99.90
56771;DHT22;42641;59.794;17.616;2023-07-31T13:43:11;20.70;99.90
56771;DHT22;42641;59.794;17.616;2023-07-31T13:45:54;20.60;99.90
56771;DHT22;42641;59.794;17.616;2023-07-31T13:48:20;20.50;99.90
56771;DHT22;42641;59.794;17.616;2023-07-31T13:50:47;20.30;99.90
56771;DHT22;42641;59.794;17.616;2023-07-31T13:53:13;20.20;99.90
56771;DHT22;42641;59.794;17.616;2023-07-31T13:55:40;19.90;99.90
56771;DHT22;42641;59.794;17.616;2023-07-31T13:58:06;19.70;99.90
56771;DHT22;42641;59.794;17.616;2023-07-31T14:00:33;19.60;99.90
56771;DHT22;42641;59.794;17.616;2023-07-31T14:03:01;19.50;99.90
56771;DHT22;42641;59.794;17.616;2023-07-31T14:05:27;19.30;99.90
56771;DHT22;42641;59.794;17.616;2023-07-31T14:07:54;19.10;99.90
56771;DHT22;42641;59.794;17.616;2023-07-31T14:10:20;19.00;99.90
56771;DHT22;42641;59.794;17.616;2023-07-31T14:12:47;18.80;99.90
56771;DHT22;42641;59.794;17.616;2023-07-31T14:15:13;18.80;99.90
56771;DHT22;42641;59.794;17.616;2023-07-31T14:17:40;18.70;99.90
56771;DHT22;42641;59.794;17.616;2023-07-31T14:20:07;18.70;99.90
56771;DHT22;42641;59.794;17.616;2023-07-31T14:22:34;18.80;99.90
56771;DHT22;42641;59.794;17.616;2023-07-31T14:25:01;18.70;99.90
56771;DHT22;42641;59.794;17.616;2023-07-31T14:27:27;18.70;99.90
56771;DHT22;42641;59.794;17.616;2023-07-31T14:29:54;18.80;99.90
56771;DHT22;42641;59.794;17.616;2023-07-31T14:32:21;18.80;99.90
56771;DHT22;42641;59.794;17.616;2023-07-31T14:34:49;18.90;99.90
56771;DHT22;42641;59.794;17.616;2023-07-31T14:37:15;19.00;99.90
56771;DHT22;42641;59.794;17.616;2023-07-31T14:39:42;19.10;99.90
56771;DHT22;42641;59.794;17.616;2023-07-31T14:42:09;19.00;99.90
56771;DHT22;42641;59.794;17.616;2023-07-31T14:44:36;19.00;99.90
56771;DHT22;42641;59.794;17.616;2023-07-31T14:47:02;18.90;99.90
56771;DHT22;42641;59.794;17.616;2023-07-31T14:49:28;19.00;99.90
56771;DHT22;42641;59.794;17.616;2023-07-31T14:51:55;19.10;99.90
56771;DHT22;42641;59.794;17.616;2023-07-31T14:54:21;19.10;99.90
56771;DHT22;42641;59.794;17.616;2023-07-31T14:56:48;19.10;99.90
56771;DHT22;42641;59.794;17.616;2023-07-31T14:59:14;19.20;99.90
56771;DHT22;42641;59.794;17.616;2023-07-31T15:01:41;19.10;99.90
56771;DHT22;42641;59.794;17.616;2023-07-31T15:04:08;19.30;99.90
56771;DHT22;42641;59.794;17.616;2023-07-31T15:06:34;19.30;99.90
56771;DHT22;42641;59.794;17.616;2023-07-31T15:09:01;19.30;99.90
56771;DHT22;42641;59.794;17.616;2023-07-31T15:11:27;19.30;99.90
56771;DHT22;42641;59.794;17.616;2023-07-31T15:13:53;19.40;99.90
56771;DHT22;42641;59.794;17.616;2023-07-31T15:16:20;19.50;99.90
56771;DHT22;42641;59.794;17.616;2023-07-31T15:18:47;19.50;99.90
56771;DHT22;42641;59.794;17.616;2023-07-31T15:21:13;19.60;99.90
56771;DHT22;42641;59.794;17.616;2023-07-31T15:23:40;19.50;99.90
56771;DHT22;42641;59.794;17.616;2023-07-31T15:26:06;19.40;99.90
56771;DHT22;42641;59.794;17.616;2023-07-31T15:28:33;19.20;99.90
56771;DHT22;42641;59.794;17.616;2023-07-31T15:31:01;19.10;99.90
56771;DHT22;42641;59.794;17.616;2023-07-31T15:33:27;19.10;99.90
56771;DHT22;42641;59.794;17.616;2023-07-31T15:35:53;19.10;99.90